Time;durP1;ratioP1;P1;durP2;ratioP2;P2;SDS_P1;SDS_P2;PMS_P1;PMS_P2;Temp;Humidity;BMP_temperature;BMP_pressure;BME280_temperature;BME280_humidity;BME280_pressure;Samples;Min_cycle;Max_cycle;Signal;HPM_P1;HPM_P2
2024/01/03 00:00:26;;;;;;;;;;;;;;;5.33;100.00;98092.17;110781;1273;23137;-73
2024/01/03 00:03:41;;;;;;;;;;;;;;;5.33;100.00;98086.79;110829;1273;22214;-73
2024/01/03 00:06:33;;;;;;;;;;;;;;;5.34;100.00;98086.38;110775;1273;23189;-72
2024/01/03 00:09:24;;;;;;;;;;;;;;;5.33;100.00;98080.40;110723;1273;22385;-72
2024/01/03 00:12:17;;;;;;;;;;;;;;;5.32;100.00;98076.56;110805;1273;22422;-72
2024/01/03 00:15:27;;;;;;;;;;;;;;;5.32;100.00;98070.23;110823;1267;22516;-71
2024/01/03 00:18:29;;;;;;;;;;;;;;;5.30;100.00;98069.51;110772;1272;23207;-72
2024/01/03 00:21:23;;;;;;;;;;;;;;;5.27;100.00;98069.55;110787;1270;23134;-72
2024/01/03 00:24:14;;;;;;;;;;;;;;;5.25;100.00;98066.48;110767;1273;22408;-72
2024/01/03 00:27:04;;;;;;;;;;;;;;;5.24;100.00;98064.90;110790;1268;23276;-73
2024/01/03 00:29:54;;;;;;;;;;;;;;;5.23;100.00;98065.86;110789;1268;22387;-72
2024/01/03 00:32:43;;;;;;;;;;;;;;;5.22;100.00;98056.90;110756;1272;23361;-72
2024/01/03 00:35:33;;;;;;;;;;;;;;;5.22;100.00;98058.60;110766;1257;22472;-72
2024/01/03 00:38:22;;;;;;;;;;;;;;;5.23;100.00;98058.81;110810;1269;22470;-73
2024/01/03 00:41:12;;;;;;;;;;;;;;;5.21;100.00;98052.78;110780;1270;22317;-73
2024/01/03 00:44:01;;;;;;;;;;;;;;;5.21;100.00;98054.59;110773;1265;22484;-73
2024/01/03 00:46:51;;;;;;;;;;;;;;;5.20;100.00;98046.42;110710;1270;22528;-73
2024/01/03 00:49:41;;;;;;;;;;;;;;;5.19;100.00;98044.92;110789;1265;22431;-73
2024/01/03 00:52:30;;;;;;;;;;;;;;;5.18;100.00;98042.59;110777;1267;23200;-73
2024/01/03 00:55:19;;;;;;;;;;;;;;;5.19;100.00;98037.27;110759;1266;22420;-73
2024/01/03 00:58:09;;;;;;;;;;;;;;;5.19;100.00;98038.38;110781;1267;22307;-73
2024/01/03 01:00:58;;;;;;;;;;;;;;;5.19;100.00;98036.58;110778;1273;22948;-71
2024/01/03 01:03:48;;;;;;;;;;;;;;;5.17;100.00;98037.77;110783;1272;22409;-72
2024/01/03 01:06:37;;;;;;;;;;;;;;;5.16;100.00;98037.11;110663;1274;23093;-72
2024/01/03 01:09:26;;;;;;;;;;;;;;;5.17;100.00;98035.81;110736;1267;22459;-73
2024/01/03 01:12:15;;;;;;;;;;;;;;;5.17;100.00;98033.14;110728;1271;23212;-72
2024/01/03 01:15:05;;;;;;;;;;;;;;;5.17;100.00;98029.11;110774;1267;23333;-73
2024/01/03 01:17:54;;;;;;;;;;;;;;;5.18;100.00;98029.21;110740;1270;22318;-72
2024/01/03 01:20:44;;;;;;;;;;;;;;;5.18;100.00;98028.33;110746;1267;22505;-73
2024/01/03 01:23:34;;;;;;;;;;;;;;;5.18;100.00;98025.80;110781;1272;22396;-72
2024/01/03 01:26:23;;;;;;;;;;;;;;;5.17;100.00;98029.63;110746;1270;22404;-72
2024/01/03 01:29:12;;;;;;;;;;;;;;;5.18;100.00;98022.48;110778;1266;22390;-73
2024/01/03 01:32:02;;;;;;;;;;;;;;;5.17;100.00;98018.96;110740;1270;22337;-72
2024/01/03 01:34:51;;;;;;;;;;;;;;;5.17;100.00;98015.45;110761;1267;22541;-73
2024/01/03 01:37:40;;;;;;;;;;;;;;;5.18;100.00;98013.38;110760;1270;23031;-73
2024/01/03 01:40:31;;;;;;;;;;;;;;;5.20;100.00;98005.59;110765;1267;22870;-73
2024/01/03 01:43:21;;;;;;;;;;;;;;;5.21;100.00;98008.31;110692;1266;22415;-73
2024/01/03 01:46:11;;;;;;;;;;;;;;;5.23;100.00;98006.33;110768;1266;22411;-72
2024/01/03 01:49:00;;;;;;;;;;;;;;;5.22;100.00;98005.01;110775;1272;22422;-73
2024/01/03 01:51:49;;;;;;;;;;;;;;;5.24;100.00;98003.89;110684;1274;22382;-72
2024/01/03 01:54:39;;;;;;;;;;;;;;;5.24;100.00;98002.14;110703;1274;23114;-72
2024/01/03 01:57:30;;;;;;;;;;;;;;;5.25;100.00;97999.78;110783;1267;22409;-72
2024/01/03 02:00:19;;;;;;;;;;;;;;;5.25;100.00;98000.39;110723;1265;23035;-72
2024/01/03 02:03:10;;;;;;;;;;;;;;;5.27;100.00;97993.10;110778;1267;22983;-72
2024/01/03 02:05:59;;;;;;;;;;;;;;;5.30;100.00;97982.95;110754;1272;23219;-72
2024/01/03 02:08:49;;;;;;;;;;;;;;;5.31;100.00;97969.93;110775;1266;22460;-72
2024/01/03 02:11:45;;;;;;;;;;;;;;;5.30;100.00;97967.10;110690;1270;23195;-73
2024/01/03 02:14:35;;;;;;;;;;;;;;;5.29;100.00;97967.61;110738;1266;22576;-73
2024/01/03 02:17:24;;;;;;;;;;;;;;;5.28;100.00;97956.79;110779;1263;22494;-72
2024/01/03 02:20:14;;;;;;;;;;;;;;;5.30;100.00;97956.54;110759;1272;23384;-72
2024/01/03 02:23:03;;;;;;;;;;;;;;;5.32;100.00;97957.40;110792;1272;22506;-72
2024/01/03 02:25:53;;;;;;;;;;;;;;;5.34;100.00;97958.67;110744;1270;22396;-72
2024/01/03 02:28:42;;;;;;;;;;;;;;;5.37;100.00;97961.95;110784;1272;22360;-72
2024/01/03 02:31:31;;;;;;;;;;;;;;;5.40;100.00;97963.86;110761;1271;22324;-72
2024/01/03 02:34:20;;;;;;;;;;;;;;;5.44;100.00;97959.86;110783;1266;22508;-73
2024/01/03 02:37:11;;;;;;;;;;;;;;;5.47;100.00;97954.98;110760;1267;23888;-73
2024/01/03 02:40:00;;;;;;;;;;;;;;;5.50;100.00;97952.83;110787;1257;22369;-72
2024/01/03 02:42:50;;;;;;;;;;;;;;;5.53;100.00;97951.42;110697;1274;22210;-73
2024/01/03 02:45:39;;;;;;;;;;;;;;;5.57;100.00;97940.02;110691;1273;22251;-73
2024/01/03 02:48:30;;;;;;;;;;;;;;;5.62;100.00;97941.12;110776;1272;22360;-74
2024/01/03 02:51:21;;;;;;;;;;;;;;;5.64;100.00;97940.21;110759;1265;22414;-72
2024/01/03 02:54:10;;;;;;;;;;;;;;;5.68;100.00;97948.73;110767;1266;22323;-72
2024/01/03 02:56:59;;;;;;;;;;;;;;;5.71;100.00;97944.56;110749;1265;22557;-72
2024/01/03 02:59:48;;;;;;;;;;;;;;;5.75;100.00;97939.59;110729;1265;22387;-72
2024/01/03 03:02:37;;;;;;;;;;;;;;;5.78;100.00;97937.73;110756;1270;22346;-73
2024/01/03 03:05:26;;;;;;;;;;;;;;;5.81;100.00;97941.80;110768;1270;22421;-73
2024/01/03 03:08:15;;;;;;;;;;;;;;;5.84;100.00;97943.73;110749;1259;22369;-72
2024/01/03 03:11:05;;;;;;;;;;;;;;;5.86;100.00;97947.72;110766;1265;22392;-72
2024/01/03 03:13:54;;;;;;;;;;;;;;;5.88;100.00;97935.13;110808;1272;22582;-72
2024/01/03 03:16:43;;;;;;;;;;;;;;;5.90;100.00;97927.95;110798;1266;22327;-73
2024/01/03 03:19:32;;;;;;;;;;;;;;;5.92;100.00;97928.34;110784;1272;22513;-72
2024/01/03 03:22:21;;;;;;;;;;;;;;;5.95;100.00;97927.44;110845;1266;22875;-72
2024/01/03 03:25:11;;;;;;;;;;;;;;;5.99;100.00;97926.13;110795;1266;22756;-73
2024/01/03 03:28:02;;;;;;;;;;;;;;;6.02;100.00;97922.35;110820;1272;22281;-74
2024/01/03 03:30:51;;;;;;;;;;;;;;;6.05;100.00;97920.38;110695;1274;22317;-73
2024/01/03 03:33:40;;;;;;;;;;;;;;;6.08;100.00;97916.17;110685;1274;22303;-72
2024/01/03 03:36:30;;;;;;;;;;;;;;;6.10;100.00;97910.91;110749;1270;22432;-72
2024/01/03 03:39:19;;;;;;;;;;;;;;;6.13;100.00;97913.69;110777;1272;22606;-72
2024/01/03 03:42:08;;;;;;;;;;;;;;;6.16;100.00;97914.13;110796;1270;22356;-73
2024/01/03 03:44:57;;;;;;;;;;;;;;;6.19;100.00;97914.38;110768;1265;22410;-71
2024/01/03 03:47:47;;;;;;;;;;;;;;;6.21;100.00;97913.16;110710;1266;22358;-72
2024/01/03 03:50:36;;;;;;;;;;;;;;;6.24;100.00;97912.15;110754;1266;22535;-72
2024/01/03 03:53:25;;;;;;;;;;;;;;;6.27;100.00;97913.27;110740;1272;22367;-72
2024/01/03 03:56:23;;;;;;;;;;;;;;;6.29;100.00;97907.37;110785;1259;22507;-72
2024/01/03 03:59:12;;;;;;;;;;;;;;;6.31;100.00;97907.32;110778;1267;22381;-74
2024/01/03 04:02:00;;;;;;;;;;;;;;;6.33;100.00;97902.58;110789;1266;22362;-72
2024/01/03 04:04:50;;;;;;;;;;;;;;;6.35;100.00;97904.04;110815;1265;22449;-71
2024/01/03 04:07:39;;;;;;;;;;;;;;;6.36;100.00;97909.52;110775;1265;22329;-75
2024/01/03 04:10:29;;;;;;;;;;;;;;;6.38;100.00;97910.08;110788;1266;22331;-72
2024/01/03 04:13:18;;;;;;;;;;;;;;;6.39;100.00;97903.56;110799;1273;22480;-72
2024/01/03 04:16:08;;;;;;;;;;;;;;;6.40;100.00;97906.34;110801;1265;22262;-72
2024/01/03 04:18:57;;;;;;;;;;;;;;;6.40;100.00;97900.70;110784;1265;22230;-72
2024/01/03 04:21:46;;;;;;;;;;;;;;;6.42;100.00;97908.90;110800;1273;22285;-72
2024/01/03 04:24:35;;;;;;;;;;;;;;;6.43;100.00;97907.48;110676;1274;22295;-72
2024/01/03 04:27:25;;;;;;;;;;;;;;;6.44;100.00;97914.09;110755;1259;22426;-73
2024/01/03 04:30:14;;;;;;;;;;;;;;;6.46;100.00;97913.79;110775;1267;23011;-72
2024/01/03 04:33:03;;;;;;;;;;;;;;;6.48;100.00;97916.41;110816;1272;22341;-73
2024/01/03 04:35:53;;;;;;;;;;;;;;;6.50;100.00;97916.35;110787;1270;22610;-72
2024/01/03 04:38:42;;;;;;;;;;;;;;;6.51;100.00;97918.82;110795;1268;22319;-73
2024/01/03 04:41:31;;;;;;;;;;;;;;;6.53;100.00;97928.55;110777;1272;22332;-72
2024/01/03 04:44:20;;;;;;;;;;;;;;;6.54;100.00;97932.36;110762;1267;22407;-72
2024/01/03 04:47:09;;;;;;;;;;;;;;;6.57;100.00;97932.52;110750;1270;22399;-72
2024/01/03 04:49:58;;;;;;;;;;;;;;;6.60;100.00;97941.23;110844;1273;22510;-72
2024/01/03 04:52:47;;;;;;;;;;;;;;;6.63;100.00;97938.86;110858;1265;22904;-72
2024/01/03 04:55:36;;;;;;;;;;;;;;;6.66;100.00;97934.41;110788;1272;22392;-72
2024/01/03 04:58:25;;;;;;;;;;;;;;;6.67;100.00;97932.14;110773;1266;22418;-72
2024/01/03 05:01:14;;;;;;;;;;;;;;;6.70;100.00;97931.87;110820;1272;22509;-72
2024/01/03 05:04:04;;;;;;;;;;;;;;;6.72;100.00;97932.87;110804;1266;23193;-73
2024/01/03 05:06:53;;;;;;;;;;;;;;;6.75;100.00;97933.06;110851;1258;22389;-72
2024/01/03 05:09:42;;;;;;;;;;;;;;;6.77;100.00;97928.38;110753;1274;22271;-72
2024/01/03 05:12:31;;;;;;;;;;;;;;;6.80;100.00;97932.14;110836;1262;22407;-71
2024/01/03 05:15:20;;;;;;;;;;;;;;;6.82;100.00;97937.44;110801;1269;22341;-72
2024/01/03 05:18:09;;;;;;;;;;;;;;;6.85;100.00;97941.91;110843;1259;22407;-75
2024/01/03 05:20:58;;;;;;;;;;;;;;;6.88;100.00;97939.19;110814;1270;22382;-73
2024/01/03 05:23:48;;;;;;;;;;;;;;;6.91;100.00;97941.84;110710;1267;22380;-74
2024/01/03 05:26:37;;;;;;;;;;;;;;;6.93;100.00;97945.92;110803;1272;22473;-72
2024/01/03 05:29:26;;;;;;;;;;;;;;;6.94;100.00;97946.23;110833;1270;22432;-72
2024/01/03 05:32:15;;;;;;;;;;;;;;;6.95;100.00;97951.21;110801;1265;22425;-72
2024/01/03 05:35:05;;;;;;;;;;;;;;;6.97;100.00;97951.55;110787;1273;22413;-72
2024/01/03 05:37:54;;;;;;;;;;;;;;;6.99;100.00;97955.13;110730;1272;22337;-72
2024/01/03 05:40:43;;;;;;;;;;;;;;;7.00;100.00;97954.47;110772;1272;22346;-72
2024/01/03 05:43:32;;;;;;;;;;;;;;;7.01;100.00;97958.11;110791;1265;22430;-74
2024/01/03 05:46:21;;;;;;;;;;;;;;;7.04;100.00;97958.69;110765;1266;22350;-73
2024/01/03 05:49:11;;;;;;;;;;;;;;;7.06;100.00;97962.16;110767;1265;23195;-72
2024/01/03 05:52:00;;;;;;;;;;;;;;;7.09;100.00;97963.16;110838;1272;23065;-72
2024/01/03 05:54:50;;;;;;;;;;;;;;;7.10;100.00;97964.31;110771;1272;22315;-73
2024/01/03 05:57:39;;;;;;;;;;;;;;;7.10;100.00;97966.23;110830;1273;22521;-72
2024/01/03 06:00:28;;;;;;;;;;;;;;;7.10;100.00;97971.38;110736;1268;22319;-74
2024/01/03 06:03:17;;;;;;;;;;;;;;;7.09;100.00;97974.86;110776;1270;22402;-73
2024/01/03 06:06:07;;;;;;;;;;;;;;;7.09;100.00;97977.99;110772;1260;22354;-72
2024/01/03 06:08:56;;;;;;;;;;;;;;;7.09;100.00;97985.86;110791;1270;22344;-73
2024/01/03 06:11:45;;;;;;;;;;;;;;;7.12;100.00;97986.81;110756;1270;22410;-73
2024/01/03 06:14:35;;;;;;;;;;;;;;;7.16;100.00;97992.70;110751;1265;22325;-72
2024/01/03 06:17:24;;;;;;;;;;;;;;;7.18;100.00;97995.98;110765;1272;22414;-72
2024/01/03 06:20:13;;;;;;;;;;;;;;;7.23;100.00;98000.99;110769;1272;22335;-72
2024/01/03 06:23:02;;;;;;;;;;;;;;;7.26;100.00;98001.89;110771;1265;23093;-72
2024/01/03 06:25:52;;;;;;;;;;;;;;;7.27;100.00;98004.06;110772;1272;22725;-72
2024/01/03 06:28:41;;;;;;;;;;;;;;;7.28;100.00;98013.65;110812;1270;22396;-72
2024/01/03 06:31:30;;;;;;;;;;;;;;;7.30;100.00;98011.66;110796;1259;22340;-72
2024/01/03 06:34:19;;;;;;;;;;;;;;;7.32;100.00;98013.53;110821;1266;22566;-72
2024/01/03 06:37:09;;;;;;;;;;;;;;;7.33;100.00;98021.70;110829;1266;24109;-75
2024/01/03 06:39:58;;;;;;;;;;;;;;;7.34;100.00;98024.97;110809;1272;22393;-73
2024/01/03 06:42:47;;;;;;;;;;;;;;;7.38;100.00;98028.65;110749;1274;22415;-72
2024/01/03 06:45:37;;;;;;;;;;;;;;;7.40;100.00;98033.48;110739;1274;22306;-73
2024/01/03 06:48:27;;;;;;;;;;;;;;;7.42;100.00;98036.76;110846;1272;23390;-72
2024/01/03 06:51:21;;;;;;;;;;;;;;;7.45;100.00;98033.67;110833;1265;22359;-72
2024/01/03 06:54:11;;;;;;;;;;;;;;;7.48;100.00;98033.75;110846;1270;22334;-73
2024/01/03 06:57:00;;;;;;;;;;;;;;;7.51;100.00;98037.88;110819;1266;22321;-72
2024/01/03 06:59:49;;;;;;;;;;;;;;;7.54;100.00;98042.11;110848;1249;22355;-71
2024/01/03 07:02:38;;;;;;;;;;;;;;;7.56;100.00;98049.63;110823;1272;22498;-72
2024/01/03 07:05:28;;;;;;;;;;;;;;;7.60;100.00;98055.15;110815;1266;22310;-72
2024/01/03 07:08:17;;;;;;;;;;;;;;;7.65;100.00;98059.99;110810;1270;22352;-74
2024/01/03 07:11:06;;;;;;;;;;;;;;;7.68;100.00;98063.40;110798;1272;22403;-71
2024/01/03 07:13:55;;;;;;;;;;;;;;;7.71;100.00;98062.23;110790;1265;22357;-73
2024/01/03 07:16:44;;;;;;;;;;;;;;;7.73;100.00;98064.29;110794;1270;23099;-71
2024/01/03 07:19:33;;;;;;;;;;;;;;;7.76;100.00;98066.05;110810;1262;22411;-72
2024/01/03 07:22:23;;;;;;;;;;;;;;;7.79;100.00;98068.81;110846;1265;22331;-73
2024/01/03 07:25:12;;;;;;;;;;;;;;;7.81;100.00;98066.58;110798;1266;22417;-73
2024/01/03 07:28:01;;;;;;;;;;;;;;;7.83;100.00;98073.42;110846;1272;22372;-72
2024/01/03 07:30:51;;;;;;;;;;;;;;;7.85;100.00;98077.66;110780;1274;22227;-72
2024/01/03 07:33:40;;;;;;;;;;;;;;;7.86;100.00;98076.85;110835;1272;22330;-73
2024/01/03 07:36:29;;;;;;;;;;;;;;;7.88;100.00;98082.65;110822;1265;22297;-71
2024/01/03 07:39:20;;;;;;;;;;;;;;;7.89;100.00;98085.27;110861;1266;22361;-72
2024/01/03 07:42:09;;;;;;;;;;;;;;;7.91;100.00;98088.14;110836;1265;22341;-72
2024/01/03 07:44:58;;;;;;;;;;;;;;;7.90;100.00;98094.86;110825;1272;22350;-73
2024/01/03 07:47:47;;;;;;;;;;;;;;;7.91;100.00;98091.88;110861;1270;22357;-72
2024/01/03 07:50:37;;;;;;;;;;;;;;;7.91;100.00;98092.89;110859;1272;22562;-72
2024/01/03 07:53:26;;;;;;;;;;;;;;;7.91;100.00;98089.65;110845;1270;22407;-73
2024/01/03 07:56:16;;;;;;;;;;;;;;;7.92;100.00;98091.16;110852;1265;23351;-73
2024/01/03 07:59:05;;;;;;;;;;;;;;;7.92;100.00;98088.99;110839;1270;23143;-72
2024/01/03 08:01:55;;;;;;;;;;;;;;;7.94;100.00;98089.84;110830;1259;22507;-72
2024/01/03 08:04:44;;;;;;;;;;;;;;;7.97;100.00;98090.89;110827;1270;22353;-73
2024/01/03 08:07:33;;;;;;;;;;;;;;;8.01;100.00;98089.60;110811;1266;22414;-72
2024/01/03 08:10:22;;;;;;;;;;;;;;;8.02;100.00;98092.27;110806;1266;22351;-71
2024/01/03 08:13:12;;;;;;;;;;;;;;;8.04;100.00;98090.66;110827;1259;22516;-72
2024/01/03 08:16:01;;;;;;;;;;;;;;;8.06;100.00;98093.21;110859;1273;22237;-72
2024/01/03 08:18:50;;;;;;;;;;;;;;;8.10;100.00;98095.01;110765;1273;22277;-70
2024/01/03 08:21:39;;;;;;;;;;;;;;;8.14;100.00;98093.17;110740;1274;23214;-71
2024/01/03 08:24:29;;;;;;;;;;;;;;;8.20;100.00;98093.90;110827;1265;22324;-71
2024/01/03 08:27:19;;;;;;;;;;;;;;;8.24;100.00;98093.97;110791;1268;22539;-71
2024/01/03 08:30:09;;;;;;;;;;;;;;;8.26;100.00;98098.98;110790;1271;23155;-71
2024/01/03 08:32:59;;;;;;;;;;;;;;;8.27;100.00;98101.27;110833;1262;22371;-71
2024/01/03 08:35:49;;;;;;;;;;;;;;;8.31;99.89;98102.14;110814;1265;23131;-71
2024/01/03 08:38:38;;;;;;;;;;;;;;;8.35;99.64;98105.84;110792;1272;23251;-71
2024/01/03 08:41:27;;;;;;;;;;;;;;;8.41;99.68;98110.16;110823;1272;22399;-71
2024/01/03 08:44:16;;;;;;;;;;;;;;;8.45;99.46;98111.16;110695;1273;22557;-71
2024/01/03 08:47:07;;;;;;;;;;;;;;;8.50;99.12;98108.70;110828;1266;22431;-70
2024/01/03 08:49:56;;;;;;;;;;;;;;;8.53;98.98;98117.46;110797;1272;22384;-71
2024/01/03 08:52:46;;;;;;;;;;;;;;;8.58;98.70;98119.41;110826;1270;22455;-72
2024/01/03 08:55:35;;;;;;;;;;;;;;;8.64;98.87;98128.15;110818;1272;22421;-71
2024/01/03 08:58:24;;;;;;;;;;;;;;;8.69;98.55;98133.84;110819;1266;23260;-71
2024/01/03 09:01:17;;;;;;;;;;;;;;;8.75;98.73;98131.77;110824;1266;22324;-71
2024/01/03 09:04:06;;;;;;;;;;;;;;;8.81;98.64;98135.92;110823;1266;22880;-70
2024/01/03 09:06:57;;;;;;;;;;;;;;;8.86;98.38;98140.14;110842;1265;23033;-71
2024/01/03 09:09:45;;;;;;;;;;;;;;;8.90;97.75;98141.20;110812;1272;22404;-71
2024/01/03 09:12:34;;;;;;;;;;;;;;;8.93;97.67;98141.65;110779;1274;22366;-72
2024/01/03 09:15:24;;;;;;;;;;;;;;;8.95;97.72;98148.27;110843;1262;22322;-70
2024/01/03 09:18:13;;;;;;;;;;;;;;;8.96;97.99;98149.51;110820;1270;22380;-71
2024/01/03 09:21:05;;;;;;;;;;;;;;;8.97;97.68;98151.52;110821;1266;22531;-71
2024/01/03 09:23:54;;;;;;;;;;;;;;;8.99;97.95;98155.36;110827;1273;23253;-71
2024/01/03 09:26:43;;;;;;;;;;;;;;;9.00;98.15;98158.59;110827;1265;22366;-71
2024/01/03 09:29:33;;;;;;;;;;;;;;;9.02;97.94;98158.23;110813;1265;23389;-70
2024/01/03 09:32:22;;;;;;;;;;;;;;;9.03;97.81;98158.52;110808;1266;22399;-71
2024/01/03 09:35:12;;;;;;;;;;;;;;;9.04;97.77;98164.73;110813;1273;23364;-70
2024/01/03 09:38:01;;;;;;;;;;;;;;;9.05;97.71;98163.61;110829;1272;22526;-71
2024/01/03 09:40:51;;;;;;;;;;;;;;;9.07;97.67;98162.33;110810;1265;22353;-71
2024/01/03 09:43:41;;;;;;;;;;;;;;;9.10;97.70;98162.21;110799;1272;22407;-71
2024/01/03 09:46:30;;;;;;;;;;;;;;;9.11;97.33;98161.98;110775;1273;22340;-71
2024/01/03 09:49:19;;;;;;;;;;;;;;;9.14;97.26;98161.76;110726;1265;145387;-70
2024/01/03 09:52:09;;;;;;;;;;;;;;;9.18;97.24;98161.22;110794;1272;22441;-72
2024/01/03 09:54:59;;;;;;;;;;;;;;;9.22;96.83;98156.95;110822;1272;22496;-71
2024/01/03 09:57:50;;;;;;;;;;;;;;;9.29;96.38;98160.26;110865;1272;22215;-71
2024/01/03 10:00:39;;;;;;;;;;;;;;;9.38;96.65;98158.30;110811;1273;23145;-71
2024/01/03 10:03:28;;;;;;;;;;;;;;;9.46;96.41;98161.01;110806;1262;22387;-71
2024/01/03 10:06:18;;;;;;;;;;;;;;;9.54;96.18;98159.66;110862;1268;22375;-71
2024/01/03 10:09:11;;;;;;;;;;;;;;;9.63;95.41;98158.95;110793;1272;22490;-71
2024/01/03 10:12:06;;;;;;;;;;;;;;;9.71;95.08;98162.82;110819;1271;22408;-71
2024/01/03 10:14:56;;;;;;;;;;;;;;;9.77;94.63;98159.22;110810;1266;23010;-72
2024/01/03 10:17:45;;;;;;;;;;;;;;;9.82;94.55;98159.73;110829;1273;22362;-71
2024/01/03 10:20:35;;;;;;;;;;;;;;;9.87;94.37;98158.39;110843;1265;22791;-71
2024/01/03 10:23:24;;;;;;;;;;;;;;;9.94;94.31;98158.41;110822;1271;22991;-72
2024/01/03 10:26:25;;;;;;;;;;;;;;;9.98;94.33;98159.89;110830;1265;22311;-71
2024/01/03 10:29:15;;;;;;;;;;;;;;;10.02;93.95;98164.55;110835;1272;22371;-71
2024/01/03 10:32:09;;;;;;;;;;;;;;;10.06;94.06;98167.48;110830;1270;22553;-71
2024/01/03 10:37:57;;;;;;;;;;;;;;;10.14;93.48;98156.46;104493;1307;542262;-70
2024/01/03 10:40:48;;;;;;;;;;;;;;;10.16;93.63;98161.61;107229;1283;25923;-71
2024/01/03 10:43:38;;;;;;;;;;;;;;;10.19;93.42;98161.63;106973;1283;23712;-70
2024/01/03 10:46:28;;;;;;;;;;;;;;;10.22;93.24;98168.09;106993;1276;22644;-71
2024/01/03 10:49:17;;;;;;;;;;;;;;;10.25;92.96;98168.39;107813;1271;25343;-72
2024/01/03 10:52:07;;;;;;;;;;;;;;;10.26;92.83;98163.00;107781;1262;174440;-73
2024/01/03 10:54:58;;;;;;;;;;;;;;;10.27;92.55;98161.57;108114;1269;23441;-72
2024/01/03 10:57:56;;;;;;;;;;;;;;;10.29;92.39;98163.92;107994;1269;22504;-70
2024/01/03 11:00:49;;;;;;;;;;;;;;;10.30;92.47;98157.79;107823;1270;22600;-72
2024/01/03 11:03:43;;;;;;;;;;;;;;;10.32;92.63;98155.42;111165;1270;23032;-71
2024/01/03 11:06:37;;;;;;;;;;;;;;;10.33;92.20;98156.27;111164;1267;22398;-71
2024/01/03 11:09:27;;;;;;;;;;;;;;;10.35;91.84;98157.05;111170;1269;22389;-71
2024/01/03 11:12:16;;;;;;;;;;;;;;;10.37;91.61;98154.23;111109;1267;22316;-71
2024/01/03 11:15:19;;;;;;;;;;;;;;;10.42;91.44;98152.04;111152;1269;22395;-71
2024/01/03 11:18:09;;;;;;;;;;;;;;;10.47;91.34;98145.31;111411;1268;22376;-71
2024/01/03 11:20:58;;;;;;;;;;;;;;;10.53;91.20;98147.22;111252;1262;22339;-72
2024/01/03 11:23:50;;;;;;;;;;;;;;;10.59;90.86;98145.20;111136;1266;22390;-71
2024/01/03 11:27:04;;;;;;;;;;;;;;;10.66;90.83;98150.09;111158;1269;23125;-71
2024/01/03 11:29:53;;;;;;;;;;;;;;;10.73;90.19;98139.72;111344;1268;22519;-71
2024/01/03 11:32:42;;;;;;;;;;;;;;;10.79;90.49;98139.94;111447;1268;23292;-71
2024/01/03 11:35:45;;;;;;;;;;;;;;;10.85;90.36;98139.09;111256;1262;22434;-70
2024/01/03 11:38:41;;;;;;;;;;;;;;;10.89;90.42;98138.15;111181;1269;22457;-71
2024/01/03 11:41:30;;;;;;;;;;;;;;;10.92;89.73;98136.17;111160;1269;23267;-71
2024/01/03 11:44:22;;;;;;;;;;;;;;;10.97;89.11;98138.89;111176;1269;22317;-71
2024/01/03 11:47:12;;;;;;;;;;;;;;;11.02;89.25;98142.36;111176;1262;22394;-71
2024/01/03 11:50:04;;;;;;;;;;;;;;;11.07;89.01;98137.05;111153;1262;23238;-72
2024/01/03 11:52:52;;;;;;;;;;;;;;;11.13;88.17;98133.85;111154;1269;22620;-71
2024/01/03 11:55:51;;;;;;;;;;;;;;;11.17;88.53;98131.90;111152;1268;22344;-70
2024/01/03 11:58:40;;;;;;;;;;;;;;;11.21;88.24;98132.23;111157;1258;23389;-71
2024/01/03 12:01:30;;;;;;;;;;;;;;;11.25;87.83;98135.45;111237;1268;22333;-71
2024/01/03 12:04:19;;;;;;;;;;;;;;;11.30;87.45;98136.35;111364;1262;22384;-71
2024/01/03 12:07:08;;;;;;;;;;;;;;;11.33;86.83;98135.67;111177;1269;22255;-72
2024/01/03 12:09:58;;;;;;;;;;;;;;;11.36;86.25;98135.96;111182;1270;22223;-71
2024/01/03 12:12:51;;;;;;;;;;;;;;;11.39;86.42;98143.23;111171;1269;23235;-72
2024/01/03 12:15:40;;;;;;;;;;;;;;;11.39;86.12;98143.58;111145;1270;22292;-72
2024/01/03 12:18:29;;;;;;;;;;;;;;;11.38;86.13;98145.58;111186;1263;22863;-71
2024/01/03 12:21:19;;;;;;;;;;;;;;;11.37;85.59;98142.77;111150;1262;23138;-71
2024/01/03 12:24:08;;;;;;;;;;;;;;;11.35;85.43;98142.44;111159;1269;22532;-72
2024/01/03 12:26:57;;;;;;;;;;;;;;;11.35;85.50;98139.71;111344;1268;22347;-71
2024/01/03 12:29:46;;;;;;;;;;;;;;;11.33;85.77;98137.20;111404;1262;22313;-72
2024/01/03 12:32:36;;;;;;;;;;;;;;;11.33;85.44;98129.70;111277;1267;22381;-72
2024/01/03 12:35:25;;;;;;;;;;;;;;;11.28;84.03;98133.02;111193;1263;22419;-71
2024/01/03 12:38:15;;;;;;;;;;;;;;;11.24;84.55;98134.58;111164;1269;22405;-71
2024/01/03 12:41:04;;;;;;;;;;;;;;;11.19;83.88;98132.79;111164;1266;22358;-72
2024/01/03 12:43:53;;;;;;;;;;;;;;;11.12;84.65;98127.35;111173;1262;22414;-71
2024/01/03 12:46:43;;;;;;;;;;;;;;;11.07;83.93;98126.64;111204;1269;22398;-72
2024/01/03 12:49:32;;;;;;;;;;;;;;;11.02;83.29;98127.32;111191;1258;22374;-71
2024/01/03 12:52:27;;;;;;;;;;;;;;;10.98;83.74;98131.86;111176;1268;22379;-71
2024/01/03 12:55:17;;;;;;;;;;;;;;;10.93;83.97;98131.33;111123;1268;22333;-71
2024/01/03 12:58:06;;;;;;;;;;;;;;;10.87;83.96;98134.23;111150;1263;22463;-72
2024/01/03 13:00:56;;;;;;;;;;;;;;;10.81;83.54;98136.50;111211;1269;22788;-72
2024/01/03 13:03:45;;;;;;;;;;;;;;;10.76;84.01;98127.98;111166;1269;22276;-71
2024/01/03 13:06:34;;;;;;;;;;;;;;;10.71;84.05;98124.89;111219;1269;23147;-72
2024/01/03 13:09:24;;;;;;;;;;;;;;;10.66;83.93;98129.33;111178;1266;22377;-71
2024/01/03 13:12:13;;;;;;;;;;;;;;;10.60;83.71;98139.55;111182;1269;23081;-72
2024/01/03 13:15:02;;;;;;;;;;;;;;;10.55;84.03;98139.48;111146;1259;22490;-71
2024/01/03 13:17:52;;;;;;;;;;;;;;;10.52;84.16;98137.23;111321;1268;24182;-73
2024/01/03 13:20:41;;;;;;;;;;;;;;;10.51;84.00;98138.42;111246;1264;22325;-72
2024/01/03 13:23:30;;;;;;;;;;;;;;;10.48;83.64;98140.27;111188;1245;22596;-71
2024/01/03 13:26:20;;;;;;;;;;;;;;;10.46;83.62;98136.96;111199;1269;22392;-71
2024/01/03 13:29:09;;;;;;;;;;;;;;;10.44;83.72;98140.70;111167;1269;22377;-71
2024/01/03 13:31:59;;;;;;;;;;;;;;;10.42;83.49;98139.52;111176;1269;22382;-72
2024/01/03 13:34:48;;;;;;;;;;;;;;;10.40;83.70;98142.39;111239;1266;22389;-72
2024/01/03 13:37:37;;;;;;;;;;;;;;;10.39;83.70;98142.80;111252;1269;22596;-72
2024/01/03 13:40:28;;;;;;;;;;;;;;;10.37;83.53;98139.38;111145;1267;23254;-72
2024/01/03 13:43:17;;;;;;;;;;;;;;;10.34;83.37;98138.66;111165;1269;22350;-71
2024/01/03 13:46:12;;;;;;;;;;;;;;;10.32;83.50;98140.88;111193;1262;23141;-73
2024/01/03 13:49:01;;;;;;;;;;;;;;;10.29;83.75;98141.62;111170;1267;22560;-71
2024/01/03 13:51:51;;;;;;;;;;;;;;;10.27;83.53;98137.02;111138;1269;22516;-71
2024/01/03 13:54:40;;;;;;;;;;;;;;;10.25;83.26;98137.21;111151;1268;22337;-71
2024/01/03 13:57:29;;;;;;;;;;;;;;;10.23;83.19;98137.39;111126;1270;22879;-71
2024/01/03 14:00:19;;;;;;;;;;;;;;;10.21;83.13;98139.55;111157;1258;22415;-72
2024/01/03 14:03:10;;;;;;;;;;;;;;;10.19;83.01;98134.96;111179;1262;22453;-72
2024/01/03 14:06:03;;;;;;;;;;;;;;;10.18;83.20;98142.23;111158;1269;22913;-71
2024/01/03 14:08:52;;;;;;;;;;;;;;;10.16;83.25;98143.73;111148;1266;22262;-71
2024/01/03 14:11:41;;;;;;;;;;;;;;;10.14;83.12;98146.23;111128;1270;22254;-71
2024/01/03 14:14:31;;;;;;;;;;;;;;;10.12;82.72;98148.89;111198;1269;22373;-72
2024/01/03 14:17:20;;;;;;;;;;;;;;;10.09;82.81;98145.55;111403;1267;22323;-71
2024/01/03 14:20:12;;;;;;;;;;;;;;;10.07;82.98;98143.46;111169;1269;23287;-72
2024/01/03 14:23:01;;;;;;;;;;;;;;;10.05;83.29;98151.48;111254;1266;22457;-71
2024/01/03 14:25:50;;;;;;;;;;;;;;;10.01;83.84;98158.42;111197;1268;22325;-72
2024/01/03 14:28:39;;;;;;;;;;;;;;;9.96;84.28;98164.73;111143;1268;23128;-72
2024/01/03 14:31:28;;;;;;;;;;;;;;;9.90;84.73;98167.17;111204;1260;22607;-71
2024/01/03 14:34:18;;;;;;;;;;;;;;;9.82;85.29;98170.46;111168;1267;22298;-72
2024/01/03 14:37:09;;;;;;;;;;;;;;;9.74;85.58;98171.65;111196;1258;22447;-71